Time;durP1;ratioP1;P1;durP2;ratioP2;P2;SDS_P1;SDS_P2;PMS_P1;PMS_P2;Temp;Humidity;BMP_temperature;BMP_pressure;BME280_temperature;BME280_humidity;BME280_pressure;Samples;Min_cycle;Max_cycle;Signal;HPM_P1;HPM_P2
2023/08/04 00:02:04;;;;;;;3.28;1.35;;;;;;;15.75;100.00;100815.22;4941268;28;20417;-79
2023/08/04 00:04:32;;;;;;;5.60;1.58;;;;;;;15.75;100.00;100813.44;4936263;28;20043;-78
2023/08/04 00:06:59;;;;;;;7.97;1.52;;;;;;;15.74;100.00;100810.78;4946686;28;20054;-78
2023/08/04 00:09:27;;;;;;;5.47;1.70;;;;;;;15.72;100.00;100810.78;4951276;28;20050;-78
2023/08/04 00:11:54;;;;;;;9.20;1.95;;;;;;;15.73;100.00;100814.34;4924856;29;20058;-77
2023/08/04 00:14:22;;;;;;;4.03;1.40;;;;;;;15.71;100.00;100817.03;4914302;28;20047;-79
2023/08/04 00:16:49;;;;;;;3.67;1.35;;;;;;;15.71;100.00;100818.81;4938442;29;20047;-78
2023/08/04 00:19:17;;;;;;;4.97;1.75;;;;;;;15.70;100.00;100820.56;4936735;28;20063;-78
2023/08/04 00:21:45;;;;;;;2.85;1.50;;;;;;;15.69;100.00;100821.47;4939595;28;20051;-78
2023/08/04 00:24:12;;;;;;;6.75;1.80;;;;;;;15.69;100.00;100834.78;4951026;28;20493;-78
2023/08/04 00:26:40;;;;;;;4.50;1.70;;;;;;;15.68;100.00;100827.69;4942363;28;20062;-78
2023/08/04 00:29:07;;;;;;;8.10;1.63;;;;;;;15.65;100.00;100826.88;4881273;29;20058;-78
2023/08/04 00:31:35;;;;;;;8.90;1.70;;;;;;;15.60;100.00;100827.84;4956272;28;20057;-78
2023/08/04 00:34:02;;;;;;;5.60;1.73;;;;;;;15.59;100.00;100834.06;4936123;28;20062;-78
2023/08/04 00:36:29;;;;;;;3.88;1.35;;;;;;;15.59;100.00;100836.72;4949714;28;20497;-77
2023/08/04 00:38:57;;;;;;;9.27;1.90;;;;;;;15.59;100.00;100839.38;4949909;28;20074;-79
2023/08/04 00:41:24;;;;;;;8.23;1.80;;;;;;;15.57;100.00;100840.28;4950139;28;20062;-79
2023/08/04 00:43:52;;;;;;;4.88;1.70;;;;;;;15.54;100.00;100840.34;4928412;28;20055;-78
2023/08/04 00:46:21;;;;;;;7.00;1.48;;;;;;;15.53;100.00;100833.28;4916095;28;20066;-78
2023/08/04 00:48:49;;;;;;;10.25;1.85;;;;;;;15.51;100.00;100835.97;4906145;28;20051;-77
2023/08/04 00:51:17;;;;;;;5.10;2.10;;;;;;;15.51;100.00;100841.28;4981984;28;20055;-78
2023/08/04 00:53:45;;;;;;;5.82;1.80;;;;;;;15.50;100.00;100847.50;4943674;28;20047;-78
2023/08/04 00:56:12;;;;;;;4.20;1.67;;;;;;;15.52;100.00;100848.34;4935412;28;20060;-79
2023/08/04 00:58:40;;;;;;;6.57;2.40;;;;;;;15.53;100.00;100839.47;4931740;29;20051;-78
2023/08/04 01:01:08;;;;;;;5.15;2.22;;;;;;;15.54;100.00;100848.31;4914730;28;20063;-78
2023/08/04 01:03:39;;;;;;;4.55;1.67;;;;;;;15.54;100.00;100849.19;4927969;28;20540;-78
2023/08/04 01:06:25;;;;;;;5.28;1.77;;;;;;;15.54;100.00;100845.66;4917618;28;20048;-79
2023/08/04 01:09:09;;;;;;;4.15;1.90;;;;;;;15.54;100.00;100841.22;4934676;28;20078;-77
2023/08/04 01:11:46;;;;;;;6.10;1.77;;;;;;;15.56;100.00;100847.38;4940449;28;20531;-78
2023/08/04 01:14:14;;;;;;;5.03;2.00;;;;;;;15.57;100.00;100849.13;4934351;28;20062;-77
2023/08/04 01:16:42;;;;;;;3.75;1.58;;;;;;;15.56;100.00;100842.06;4918878;28;20504;-77
2023/08/04 01:19:09;;;;;;;3.78;1.60;;;;;;;15.57;100.00;100848.25;4971634;28;20055;-78
2023/08/04 01:21:42;;;;;;;4.85;1.60;;;;;;;15.55;100.00;100848.28;4939892;29;20044;-78
2023/08/04 01:24:11;;;;;;;4.40;1.83;;;;;;;15.55;100.00;100853.59;4944386;28;20059;-79
2023/08/04 01:26:44;;;;;;;6.57;2.20;;;;;;;15.58;100.00;100855.34;4926220;29;20055;-79
2023/08/04 01:29:15;;;;;;;6.28;2.00;;;;;;;15.59;100.00;100865.94;4958443;28;20070;-79
2023/08/04 01:31:43;;;;;;;10.40;2.20;;;;;;;15.61;100.00;100860.56;4934149;28;20055;-77
2023/08/04 01:34:11;;;;;;;7.68;2.28;;;;;;;15.60;100.00;100869.47;4942573;28;20063;-78
2023/08/04 01:36:39;;;;;;;5.10;2.47;;;;;;;15.60;100.00;100869.47;4947542;28;20043;-79
2023/08/04 01:39:06;;;;;;;7.53;2.70;;;;;;;15.58;100.00;100863.31;4927081;28;20445;-78
2023/08/04 01:41:33;;;;;;;4.95;2.60;;;;;;;15.56;100.00;100859.78;4939522;29;20082;-78
2023/08/04 01:44:01;;;;;;;9.43;3.30;;;;;;;15.57;100.00;100866.84;4923387;28;20048;-78
2023/08/04 01:46:28;;;;;;;6.72;1.90;;;;;;;15.55;100.00;100874.84;4934140;29;20058;-78
2023/08/04 01:48:56;;;;;;;5.80;2.25;;;;;;;15.54;100.00;100870.44;4917538;28;20073;-78
2023/08/04 01:51:23;;;;;;;9.10;2.17;;;;;;;15.54;100.00;100870.44;4945312;28;20060;-78
2023/08/04 01:53:51;;;;;;;7.57;1.92;;;;;;;15.52;100.00;100874.00;4933589;28;20051;-79
2023/08/04 01:56:18;;;;;;;4.28;1.98;;;;;;;15.51;100.00;100881.09;4948353;28;20128;-79
2023/08/04 01:58:47;;;;;;;4.20;1.60;;;;;;;15.49;100.00;100869.63;4944719;29;20055;-78
2023/08/04 02:01:16;;;;;;;5.22;1.90;;;;;;;15.50;100.00;100867.84;4938209;28;20106;-78
2023/08/04 02:03:43;;;;;;;3.92;1.42;;;;;;;15.50;100.00;100871.41;4924078;29;20051;-78
2023/08/04 02:06:12;;;;;;;3.65;2.05;;;;;;;15.52;100.00;100871.34;4941047;28;20039;-77
2023/08/04 02:08:39;;;;;;;5.13;1.73;;;;;;;15.51;100.00;100878.44;4914694;29;20507;-78
2023/08/04 02:11:07;;;;;;;2.95;1.50;;;;;;;15.49;100.00;100874.06;4951144;28;20047;-77
2023/08/04 02:13:35;;;;;;;4.10;1.27;;;;;;;15.48;100.00;100881.19;4936783;28;20044;-77
2023/08/04 02:16:02;;;;;;;5.82;1.20;;;;;;;15.49;100.00;100884.69;4942393;28;20047;-77
2023/08/04 02:18:30;;;;;;;1.27;1.17;;;;;;;15.49;100.00;100884.69;4942992;28;20180;-78
2023/08/04 02:20:57;;;;;;;1.10;1.00;;;;;;;15.49;100.00;100877.59;4919247;28;20585;-77
2023/08/04 02:23:25;;;;;;;5.45;1.58;;;;;;;15.50;100.00;100883.78;4954764;28;20051;-78
2023/08/04 02:25:52;;;;;;;6.68;2.08;;;;;;;15.48;100.00;100882.94;4903141;29;20047;-78
2023/08/04 02:28:19;;;;;;;4.40;1.60;;;;;;;15.48;100.00;100886.50;4953239;28;20529;-78
2023/08/04 02:30:47;;;;;;;2.30;1.45;;;;;;;15.47;100.00;100887.38;4952679;28;20054;-77
2023/08/04 02:33:15;;;;;;;4.78;1.88;;;;;;;15.47;100.00;100894.47;4943688;28;20059;-78
2023/08/04 02:35:42;;;;;;;5.60;2.25;;;;;;;15.43;100.00;100896.28;4913429;28;20047;-78
2023/08/04 02:38:11;;;;;;;3.85;2.00;;;;;;;15.39;100.00;100889.28;4940866;28;20512;-79
2023/08/04 02:40:38;;;;;;;6.55;2.17;;;;;;;15.36;100.00;100899.94;4934524;28;20055;-78
2023/08/04 02:43:05;;;;;;;4.32;2.22;;;;;;;15.33;100.00;100890.25;4934155;28;20094;-78
2023/08/04 02:45:33;;;;;;;4.93;1.85;;;;;;;15.30;100.00;100898.25;4951849;28;20047;-77
2023/08/04 02:48:00;;;;;;;3.58;1.70;;;;;;;15.27;100.00;100900.09;4942658;28;20051;-78
2023/08/04 02:50:28;;;;;;;8.32;2.25;;;;;;;15.24;100.00;100900.16;4946237;28;20047;-78
2023/08/04 02:52:56;;;;;;;5.35;1.90;;;;;;;15.21;100.00;100901.06;4941390;28;20055;-77
2023/08/04 02:55:23;;;;;;;5.18;2.47;;;;;;;15.19;100.00;100905.50;4950983;28;20131;-77
2023/08/04 02:57:50;;;;;;;8.32;2.47;;;;;;;15.17;100.00;100900.22;4947221;28;20051;-77
2023/08/04 03:00:18;;;;;;;3.03;1.83;;;;;;;15.16;100.00;100894.94;4931133;28;20050;-78
2023/08/04 03:02:45;;;;;;;4.50;1.73;;;;;;;15.15;100.00;100899.38;4941405;28;20049;-78
2023/08/04 03:05:13;;;;;;;4.85;2.22;;;;;;;15.15;100.00;100898.50;4920011;28;20040;-77
2023/08/04 03:07:41;;;;;;;3.45;2.17;;;;;;;15.13;100.00;100901.16;4935044;28;20066;-77
2023/08/04 03:10:09;;;;;;;6.80;2.50;;;;;;;15.11;100.00;100895.00;4947093;29;20051;-77
2023/08/04 03:12:37;;;;;;;3.42;2.33;;;;;;;15.08;100.00;100900.34;4957288;28;20055;-77
2023/08/04 03:15:05;;;;;;;5.90;2.40;;;;;;;15.07;100.00;100892.44;4951954;29;20444;-79
2023/08/04 03:17:34;;;;;;;2.80;1.80;;;;;;;15.06;100.00;100896.84;4969743;28;20069;-77
2023/08/04 03:20:02;;;;;;;3.03;1.90;;;;;;;15.06;100.00;100906.59;4982561;28;20059;-77
2023/08/04 03:22:29;;;;;;;6.07;2.10;;;;;;;15.05;100.00;100900.41;4962258;28;20039;-78
2023/08/04 03:24:57;;;;;;;5.88;2.42;;;;;;;15.07;100.00;100903.06;4960302;28;20059;-77
2023/08/04 03:27:24;;;;;;;6.53;2.45;;;;;;;15.06;100.00;100904.81;4947540;28;20059;-78
2023/08/04 03:29:52;;;;;;;3.05;2.17;;;;;;;15.08;100.00;100910.97;4966331;29;20047;-78
2023/08/04 03:32:19;;;;;;;5.95;2.10;;;;;;;15.08;100.00;100910.97;4962796;28;20733;-78
2023/08/04 03:34:47;;;;;;;5.22;2.20;;;;;;;15.09;100.00;100912.72;4961441;28;20063;-78
2023/08/04 03:37:14;;;;;;;2.17;2.08;;;;;;;15.09;100.00;100917.19;4905927;28;23458;-78
2023/08/04 03:39:42;;;;;;;7.70;2.70;;;;;;;15.10;100.00;100926.88;4947337;28;20055;-77
2023/08/04 03:42:09;;;;;;;5.70;2.42;;;;;;;15.09;100.00;100922.47;4938063;29;20051;-77
2023/08/04 03:44:37;;;;;;;4.15;2.45;;;;;;;15.06;100.00;100926.03;4937389;29;20059;-78
2023/08/04 03:47:04;;;;;;;7.88;2.03;;;;;;;15.07;100.00;100937.56;4929211;29;20039;-77
2023/08/04 03:49:32;;;;;;;5.45;2.47;;;;;;;15.07;100.00;100934.91;4951717;29;20094;-78
2023/08/04 03:52:00;;;;;;;3.05;2.28;;;;;;;15.09;100.00;100935.75;4936878;28;20058;-78
2023/08/04 03:54:27;;;;;;;5.60;2.30;;;;;;;15.08;100.00;100940.16;4931816;29;20058;-78
2023/08/04 03:56:54;;;;;;;2.50;1.90;;;;;;;15.08;100.00;100939.28;4948038;29;20058;-78
2023/08/04 03:59:22;;;;;;;5.13;2.00;;;;;;;15.08;100.00;100940.16;4947626;28;20062;-77
2023/08/04 04:01:49;;;;;;;4.28;2.42;;;;;;;15.10;100.00;100951.63;4937268;28;20059;-77
2023/08/04 04:04:17;;;;;;;5.80;1.98;;;;;;;15.09;100.00;100952.53;4921636;29;20485;-78
2023/08/04 04:06:44;;;;;;;1.88;1.48;;;;;;;15.09;100.00;100952.53;4949752;28;20504;-78
2023/08/04 04:09:12;;;;;;;4.93;1.60;;;;;;;15.07;100.00;100949.03;4924885;28;20077;-79
2023/08/04 04:11:39;;;;;;;3.28;1.58;;;;;;;15.08;100.00;100944.59;4946821;28;20055;-77
2023/08/04 04:14:10;;;;;;;1.95;1.35;;;;;;;15.06;100.00;100955.22;4929493;28;20047;-77
2023/08/04 04:16:38;;;;;;;3.55;1.42;;;;;;;15.02;100.00;100961.47;4946500;29;20055;-77
2023/08/04 04:19:05;;;;;;;4.43;1.35;;;;;;;14.99;100.00;100958.91;4965232;28;20432;-77
2023/08/04 04:21:34;;;;;;;4.38;1.13;;;;;;;14.96;100.00;100965.09;4961433;28;20039;-78
2023/08/04 04:24:04;;;;;;;5.53;1.60;;;;;;;14.94;100.00;100971.34;4978450;28;20066;-78
2023/08/04 04:26:31;;;;;;;2.40;1.40;;;;;;;14.91;100.00;100972.22;4977470;28;20058;-79
2023/08/04 04:28:59;;;;;;;2.35;1.20;;;;;;;14.88;100.00;100982.91;4964550;28;20057;-77
2023/08/04 04:31:27;;;;;;;2.95;1.55;;;;;;;14.89;100.00;100994.38;4956531;28;20059;-79
2023/08/04 04:33:54;;;;;;;2.28;2.05;;;;;;;14.86;100.00;100989.09;4937199;29;20066;-80
2023/08/04 04:36:21;;;;;;;3.13;1.60;;;;;;;14.80;100.00;100990.97;4978109;28;20834;-78
2023/08/04 04:38:50;;;;;;;1.75;1.55;;;;;;;14.76;100.00;100994.53;4939972;28;20055;-78
2023/08/04 04:41:17;;;;;;;1.90;1.80;;;;;;;14.73;100.00;101009.63;4919927;29;20062;-78
2023/08/04 04:43:45;;;;;;;3.55;1.75;;;;;;;14.68;100.00;101011.44;4964839;29;20063;-78
2023/08/04 04:46:12;;;;;;;5.03;1.60;;;;;;;14.62;100.00;101013.25;4958723;28;20047;-78
2023/08/04 04:48:41;;;;;;;3.60;1.60;;;;;;;14.60;100.00;101011.53;4951712;29;20070;-79
2023/08/04 04:51:09;;;;;;;2.22;1.40;;;;;;;14.62;100.00;101012.38;4958360;28;20054;-78
2023/08/04 04:53:36;;;;;;;2.40;1.52;;;;;;;14.64;100.00;101009.72;4939800;29;20055;-79
2023/08/04 04:56:06;;;;;;;1.85;1.45;;;;;;;14.65;100.00;101001.75;4946435;29;20054;-79
2023/08/04 04:58:33;;;;;;;1.67;1.58;;;;;;;14.67;100.00;101005.25;4967296;28;20059;-78
2023/08/04 05:01:05;;;;;;;2.00;1.70;;;;;;;14.67;100.00;101009.66;4942590;29;20050;-78
2023/08/04 05:03:33;;;;;;;3.40;1.65;;;;;;;14.68;100.00;101017.59;4969376;28;20050;-78
2023/08/04 05:06:00;;;;;;;1.70;1.60;;;;;;;14.71;100.00;101016.72;4970058;28;20051;-79
2023/08/04 05:08:28;;;;;;;2.85;2.00;;;;;;;14.73;100.00;101020.22;4992642;28;20055;-79
2023/08/04 05:10:55;;;;;;;1.73;1.63;;;;;;;14.73;100.00;101015.78;4946359;28;20067;-79
2023/08/04 05:13:23;;;;;;;4.88;1.67;;;;;;;14.75;100.00;101019.31;4963741;28;20052;-78
2023/08/04 05:15:50;;;;;;;2.45;1.55;;;;;;;14.78;100.00;101024.59;4982226;28;20055;-77
2023/08/04 05:18:19;;;;;;;1.80;1.70;;;;;;;14.82;100.00;101028.09;4946306;29;20050;-79
2023/08/04 05:20:47;;;;;;;2.22;1.75;;;;;;;14.85;100.00;101032.47;4963176;28;20134;-79
2023/08/04 05:23:16;;;;;;;1.67;1.58;;;;;;;14.90;100.00;101033.28;4948982;28;20987;-77
2023/08/04 05:25:44;;;;;;;3.42;2.20;;;;;;;14.92;100.00;101040.34;4945781;28;20058;-79
2023/08/04 05:28:30;;;;;;;2.50;1.83;;;;;;;14.97;100.00;101043.81;4945557;28;20051;-78
2023/08/04 05:31:00;;;;;;;2.67;1.65;;;;;;;14.99;100.00;101036.72;4956380;28;20082;-77
2023/08/04 05:33:29;;;;;;;;;;;;;;;15.01;100.00;101039.34;4947635;29;20062;-78
2023/08/04 05:35:57;;;;;;;2.45;1.70;;;;;;;15.02;100.00;101035.78;4963318;28;19923;-77
2023/08/04 05:38:25;;;;;;;2.45;1.50;;;;;;;15.04;100.00;101039.31;4966601;28;20062;-78
2023/08/04 05:40:55;;;;;;;1.95;1.60;;;;;;;15.06;100.00;101042.81;4974828;28;20062;-79
2023/08/04 05:43:23;;;;;;;2.28;1.38;;;;;;;15.09;100.00;101044.56;4955021;28;20047;-78
2023/08/04 05:45:54;;;;;;;1.50;1.40;;;;;;;15.09;100.00;101053.41;4945370;29;20043;-78
2023/08/04 05:48:21;;;;;;;4.83;1.97;;;;;;;15.11;100.00;101048.94;4952805;28;20061;-78
2023/08/04 05:50:49;;;;;;;2.75;2.25;;;;;;;15.16;100.00;101060.41;4934841;29;20303;-78
2023/08/04 05:53:16;;;;;;;2.13;1.90;;;;;;;15.23;100.00;101061.19;4962140;28;20065;-78
2023/08/04 05:55:50;;;;;;;3.47;2.47;;;;;;;15.28;100.00;101051.38;4955911;28;20051;-78
2023/08/04 05:58:18;;;;;;;4.10;2.40;;;;;;;15.35;100.00;101057.50;4945831;28;20497;-79
2023/08/04 06:00:46;;;;;;;3.42;1.65;;;;;;;15.39;100.00;101059.22;4948556;28;20066;-79
2023/08/04 06:03:13;;;;;;;2.28;1.98;;;;;;;15.43;100.00;101055.63;4956802;28;20055;-79
2023/08/04 06:05:41;;;;;;;1.88;1.67;;;;;;;15.48;100.00;101067.06;4944787;28;20075;-78
2023/08/04 06:08:08;;;;;;;4.65;2.00;;;;;;;15.53;100.00;101070.53;4939611;28;20051;-78
2023/08/04 06:10:36;;;;;;;2.50;1.58;;;;;;;15.55;100.00;101076.69;4936384;28;20055;-79
2023/08/04 06:13:04;;;;;;;3.10;1.80;;;;;;;15.59;100.00;101070.47;4884703;29;20051;-78
2023/08/04 06:15:32;;;;;;;2.83;2.03;;;;;;;15.63;100.00;101071.25;4926262;28;20043;-78
2023/08/04 06:18:00;;;;;;;2.83;2.47;;;;;;;15.65;100.00;101071.25;4956506;28;20046;-81
2023/08/04 06:20:28;;;;;;;2.63;2.20;;;;;;;15.65;100.00;101074.81;4920771;28;20055;-79
2023/08/04 06:22:56;;;;;;;2.30;2.00;;;;;;;15.68;100.00;101092.47;4902380;28;20186;-80
2023/08/04 06:25:23;;;;;;;3.65;2.40;;;;;;;15.73;100.00;101080.00;4935697;28;20047;-79
2023/08/04 06:27:53;;;;;;;6.57;2.63;;;;;;;15.74;100.00;101081.78;4918282;28;20106;-80
2023/08/04 06:30:20;;;;;;;3.78;2.38;;;;;;;15.75;100.00;101084.41;4911371;29;20575;-81
2023/08/04 06:32:49;;;;;;;6.68;2.47;;;;;;;15.77;100.00;101087.94;4950321;28;20055;-81
2023/08/04 06:35:17;;;;;;;3.25;2.33;;;;;;;15.77;100.00;101090.59;4951734;28;20073;-81
2023/08/04 06:37:44;;;;;;;4.50;2.50;;;;;;;15.81;100.00;101094.09;4932742;29;20051;-81
2023/08/04 06:40:12;;;;;;;3.42;2.72;;;;;;;15.84;100.00;101102.03;4939815;28;20472;-80
2023/08/04 06:42:39;;;;;;;3.38;2.28;;;;;;;15.86;100.00;101094.91;4916733;29;20046;-79
2023/08/04 06:45:07;;;;;;;3.97;2.55;;;;;;;15.91;100.00;101094.81;4989438;28;20059;-79
2023/08/04 06:47:35;;;;;;;5.88;3.00;;;;;;;15.92;100.00;101097.47;4967963;28;20061;-79
2023/08/04 06:50:03;;;;;;;3.25;2.50;;;;;;;15.94;100.00;101095.66;4953274;28;20066;-80
2023/08/04 06:52:31;;;;;;;6.30;2.88;;;;;;;15.94;100.00;101105.41;4994256;28;20055;-79
2023/08/04 06:54:59;;;;;;;4.05;2.42;;;;;;;15.96;100.00;101107.13;4971799;29;20055;-79
2023/08/04 06:57:29;;;;;;;4.13;2.30;;;;;;;16.00;100.00;101112.41;4962908;28;20039;-79
2023/08/04 06:59:57;;;;;;;5.72;2.67;;;;;;;16.03;100.00;101105.28;4937161;29;20047;-79
2023/08/04 07:02:24;;;;;;;6.43;2.42;;;;;;;16.07;100.00;101111.44;4963015;28;20059;-79
2023/08/04 07:04:52;;;;;;;4.63;2.50;;;;;;;16.09;100.00;101107.84;4963436;28;20142;-79
2023/08/04 07:07:19;;;;;;;7.25;2.40;;;;;;;16.15;100.00;101102.41;4963660;28;20047;-79
2023/08/04 07:09:47;;;;;;;2.50;2.30;;;;;;;16.21;100.00;101105.88;4973027;28;20179;-80
2023/08/04 07:12:16;;;;;;;5.25;2.63;;;;;;;16.26;100.00;101102.25;4948984;29;20051;-80
2023/08/04 07:14:44;;;;;;;6.70;2.47;;;;;;;16.32;100.00;101106.59;4969736;28;20043;-78
2023/08/04 07:17:11;;;;;;;5.78;2.25;;;;;;;16.37;100.00;101110.06;4951183;29;20059;-78
2023/08/04 07:19:39;;;;;;;2.63;2.10;;;;;;;16.45;100.00;101121.44;4956048;28;20061;-80
2023/08/04 07:22:06;;;;;;;3.78;2.03;;;;;;;16.57;100.00;101121.22;4964359;28;20051;-80
2023/08/04 07:24:34;;;;;;;5.93;2.60;;;;;;;16.72;100.00;101125.41;5003380;28;20061;-79
2023/08/04 07:27:01;;;;;;;8.98;2.03;;;;;;;16.86;100.00;101129.63;4988057;28;20045;-78
2023/08/04 07:29:33;;;;;;;4.82;1.88;;;;;;;16.89;100.00;101119.78;4966966;28;20035;-79
2023/08/04 07:32:01;;;;;;;6.35;2.05;;;;;;;16.95;100.00;101127.66;4956951;28;20053;-79
2023/08/04 07:34:28;;;;;;;6.63;2.00;;;;;;;17.01;100.00;101139.09;4969941;28;20048;-79
2023/08/04 07:36:56;;;;;;;2.55;1.70;;;;;;;17.04;100.00;101134.59;4955000;28;20033;-80
2023/08/04 07:39:25;;;;;;;4.83;2.30;;;;;;;17.07;100.00;101138.97;4987449;28;20051;-78
2023/08/04 07:41:53;;;;;;;3.13;1.52;;;;;;;17.10;100.00;101137.16;4971789;28;20058;-79
2023/08/04 07:44:21;;;;;;;4.53;1.95;;;;;;;17.14;100.00;101146.84;4983797;28;20066;-79
2023/08/04 07:46:48;;;;;;;3.47;1.77;;;;;;;17.17;100.00;101139.72;4965671;28;20066;-80
2023/08/04 07:49:16;;;;;;;4.50;2.05;;;;;;;17.21;100.00;101139.59;4975252;28;20043;-78
2023/08/04 07:51:44;;;;;;;2.80;1.80;;;;;;;17.26;100.00;101152.84;4968714;28;20051;-79
2023/08/04 07:54:13;;;;;;;7.60;2.15;;;;;;;17.24;100.00;101152.88;4974070;28;20059;-79
2023/08/04 07:56:40;;;;;;;5.78;1.85;;;;;;;17.24;100.00;101151.97;4969168;28;20248;-79
2023/08/04 07:59:12;;;;;;;5.22;1.85;;;;;;;17.25;100.00;101149.28;4968866;28;20043;-79
2023/08/04 08:01:41;;;;;;;11.82;2.17;;;;;;;17.28;100.00;101156.34;4952076;28;20035;-81
2023/08/04 08:04:09;;;;;;;6.88;2.38;;;;;;;17.30;100.00;101165.19;4955954;28;20061;-80
2023/08/04 08:06:39;;;;;;;9.13;2.33;;;;;;;17.28;100.00;101169.69;4964123;28;20105;-80
2023/08/04 08:09:11;;;;;;;5.13;2.08;;;;;;;17.24;100.00;101173.28;4945496;29;20405;-80
2023/08/04 08:11:39;;;;;;;7.95;2.42;;;;;;;17.19;100.00;101160.06;4951085;28;20047;-79
2023/08/04 08:14:07;;;;;;;3.58;1.88;;;;;;;17.11;100.00;101175.31;4950773;29;20051;-81
2023/08/04 08:16:35;;;;;;;3.70;2.08;;;;;;;17.03;100.00;101174.56;4992259;28;20051;-81
2023/08/04 08:19:05;;;;;;;;;;;;;;;16.93;100.00;101172.06;4981884;28;20050;-81
2023/08/04 08:21:32;;;;;;;9.68;2.40;;;;;;;16.91;100.00;101178.34;4961434;28;19922;-81
2023/08/04 08:24:01;;;;;;;4.65;1.80;;;;;;;16.93;100.00;101176.53;4956904;28;20069;-81
2023/08/04 08:26:29;;;;;;;5.32;2.10;;;;;;;16.98;100.00;101176.47;4962497;28;20508;-81
2023/08/04 08:28:56;;;;;;;4.00;2.00;;;;;;;16.99;100.00;101172.88;4960152;28;20668;-79
2023/08/04 08:31:23;;;;;;;7.30;2.22;;;;;;;17.01;100.00;101171.06;4938305;29;20039;-80
2023/08/04 08:33:51;;;;;;;7.70;2.20;;;;;;;17.04;100.00;101176.34;4972784;28;20050;-81
2023/08/04 08:36:19;;;;;;;4.68;2.40;;;;;;;17.12;100.00;101177.06;4948692;28;20070;-81
2023/08/04 08:38:49;;;;;;;8.38;2.90;;;;;;;17.25;100.00;101172.38;4972631;28;20049;-81
2023/08/04 08:41:18;;;;;;;7.90;2.40;;;;;;;17.34;100.00;101174.88;4966404;28;20051;-80
2023/08/04 08:43:46;;;;;;;6.07;2.10;;;;;;;17.47;100.00;101176.38;4956176;28;20394;-81
2023/08/04 08:46:15;;;;;;;8.75;2.67;;;;;;;17.59;100.00;101182.38;4938364;28;20055;-79
2023/08/04 08:48:46;;;;;;;7.07;1.98;;;;;;;17.76;100.00;101177.56;4951391;28;20482;-78
2023/08/04 08:51:19;;;;;;;7.22;2.00;;;;;;;17.95;100.00;101174.53;4963859;29;20043;-80
2023/08/04 08:53:47;;;;;;;3.95;1.75;;;;;;;18.04;100.00;101183.19;4984829;28;20058;-78
2023/08/04 08:56:16;;;;;;;4.38;1.52;;;;;;;18.08;100.00;101189.34;4964287;28;20039;-79
2023/08/04 08:58:44;;;;;;;4.80;1.80;;;;;;;18.03;100.00;101202.75;4951290;28;20059;-79
2023/08/04 09:01:11;;;;;;;2.40;1.30;;;;;;;17.96;100.00;101200.28;4982015;28;20055;-78
2023/08/04 09:03:40;;;;;;;5.75;2.15;;;;;;;17.91;100.00;101195.06;4970370;28;20062;-78
2023/08/04 09:06:09;;;;;;;5.35;1.63;;;;;;;17.87;100.00;101194.25;4952065;29;20063;-78
2023/08/04 09:08:39;;;;;;;2.22;1.83;;;;;;;17.90;100.00;101204.84;4957560;28;20066;-79
2023/08/04 09:11:08;;;;;;;5.28;1.40;;;;;;;17.98;100.00;101199.34;4964046;28;20054;-79
2023/08/04 09:13:40;;;;;;;4.97;1.40;;;;;;;17.97;100.00;101210.91;4979693;28;20065;-79
2023/08/04 09:16:12;;;;;;;5.28;1.30;;;;;;;17.94;100.00;101208.31;4992332;28;20055;-80
2023/08/04 09:18:41;;;;;;;3.08;1.27;;;;;;;18.00;100.00;101205.53;4934059;28;20511;-80
2023/08/04 09:21:13;;;;;;;2.70;1.08;;;;;;;18.02;100.00;101209.03;4974414;28;20059;-79
2023/08/04 09:23:42;;;;;;;2.72;1.20;;;;;;;18.10;100.00;101208.84;4967101;28;20123;-79
2023/08/04 09:26:11;;;;;;;2.63;1.40;;;;;;;18.26;100.00;101214.72;4958026;29;20053;-79
2023/08/04 09:28:41;;;;;;;3.38;1.10;;;;;;;18.34;100.00;101214.56;4970501;28;20053;-80
2023/08/04 09:31:11;;;;;;;3.60;1.40;;;;;;;18.40;100.00;101219.75;4969335;28;20046;-79
2023/08/04 09:33:44;;;;;;;4.28;1.15;;;;;;;18.38;100.00;101218.91;4969291;28;20066;-78
2023/08/04 09:36:16;;;;;;;6.53;1.63;;;;;;;18.39;100.00;101228.66;4966066;28;20058;-80
2023/08/04 09:38:47;;;;;;;6.53;1.80;;;;;;;18.46;100.00;101217.78;4958712;29;20047;-80
2023/08/04 09:41:17;;;;;;;5.68;1.75;;;;;;;18.54;100.00;101214.94;4977294;28;20050;-80
2023/08/04 09:43:49;;;;;;;5.97;1.48;;;;;;;18.72;100.00;101223.44;4993351;28;20043;-79
2023/08/04 09:46:16;;;;;;;3.85;1.40;;;;;;;18.78;100.00;101223.28;4975418;28;20057;-80
2023/08/04 09:48:47;;;;;;;2.63;1.20;;;;;;;18.76;100.00;101239.31;4959832;28;20047;-81
2023/08/04 09:51:19;;;;;;;4.57;1.45;;;;;;;18.76;100.00;101230.44;4973293;28;20035;-79
2023/08/04 09:53:54;;;;;;;3.78;1.75;;;;;;;18.75;100.00;101237.59;4970870;28;20043;-80
2023/08/04 09:56:27;;;;;;;4.25;1.38;;;;;;;18.82;100.00;101233.84;4974823;28;20042;-80
2023/08/04 09:58:57;;;;;;;4.95;1.60;;;;;;;19.05;100.00;101229.72;4965101;28;20035;-80
2023/08/04 10:01:25;;;;;;;8.40;1.75;;;;;;;19.17;100.00;101231.19;4969435;28;20055;-80
2023/08/04 10:03:57;;;;;;;6.38;1.85;;;;;;;19.23;100.00;101225.72;4957453;28;20051;-80
2023/08/04 10:06:28;;;;;;;6.55;1.65;;;;;;;19.21;100.00;101238.25;4966039;28;20039;-81
2023/08/04 10:08:55;;;;;;;;;;;;;;;19.04;100.00;101239.53;4972216;28;20038;-78
2023/08/04 10:11:23;;;;;;;5.07;1.67;;;;;;;19.02;100.00;101249.38;4961796;28;19924;-79
2023/08/04 10:13:55;;;;;;;8.98;1.30;;;;;;;18.93;100.00;101246.94;4967979;28;20057;-80
2023/08/04 10:16:27;;;;;;;3.35;1.40;;;;;;;18.87;100.00;101239.97;4976262;28;20055;-79
2023/08/04 10:19:00;;;;;;;5.55;1.40;;;;;;;18.82;100.00;101241.88;4972622;28;20641;-79
2023/08/04 10:21:34;;;;;;;6.50;1.70;;;;;;;18.78;100.00;101237.50;4980329;28;20047;-78
2023/08/04 10:24:07;;;;;;;5.57;1.13;;;;;;;18.88;100.00;101246.19;4958530;29;20060;-78
2023/08/04 10:26:47;;;;;;;3.27;1.50;;;;;;;19.06;100.00;101245.72;4967239;28;20043;-79
2023/08/04 10:29:14;;;;;;;4.95;1.42;;;;;;;19.21;100.00;101232.91;4990885;28;20077;-79
2023/08/04 10:31:53;;;;;;;2.40;0.93;;;;;;;19.28;100.00;101239.81;4975402;29;20051;-79
2023/08/04 10:34:27;;;;;;;2.33;1.05;;;;;;;19.36;100.00;101240.50;4962881;28;20059;-80
2023/08/04 10:36:57;;;;;;;8.15;1.60;;;;;;;19.50;100.00;101236.56;4964820;28;20051;-79
2023/08/04 10:39:44;;;;;;;2.60;1.33;;;;;;;19.51;100.00;101243.66;4983405;28;20041;-79
2023/08/04 10:42:11;;;;;;;3.65;1.42;;;;;;;19.48;100.00;101250.84;4975220;28;20047;-79
2023/08/04 10:45:06;;;;;;;4.25;1.20;;;;;;;19.45;100.00;101253.59;4964848;28;20035;-79
2023/08/04 10:47:42;;;;;;;1.98;1.10;;;;;;;19.45;100.00;101250.94;4988591;28;20058;-79
2023/08/04 10:50:29;;;;;;;3.17;1.20;;;;;;;19.38;100.00;101261.84;4979626;28;20047;-81
2023/08/04 10:52:57;;;;;;;10.00;1.98;;;;;;;19.41;100.00;101259.97;4956175;28;20047;-80
2023/08/04 10:55:26;;;;;;;3.90;1.42;;;;;;;19.55;100.00;101258.69;4935143;29;20055;-80
2023/08/04 10:57:53;;;;;;;5.53;1.23;;;;;;;19.77;100.00;101261.66;4972691;28;20054;-80
2023/08/04 11:00:21;;;;;;;3.65;0.80;;;;;;;19.89;100.00;101265.81;4988976;28;20051;-81
2023/08/04 11:02:49;;;;;;;2.92;0.90;;;;;;;20.00;100.00;101255.63;4960492;29;20075;-80
2023/08/04 11:05:23;;;;;;;2.00;0.80;;;;;;;20.09;100.00;101263.41;4958327;28;20058;-79
2023/08/04 11:07:51;;;;;;;1.42;0.80;;;;;;;20.27;100.00;101270.00;4968978;28;20047;-79
2023/08/04 11:10:21;;;;;;;4.93;0.95;;;;;;;20.32;100.00;101269.84;5002950;28;20055;-78
2023/08/04 11:12:52;;;;;;;2.65;1.10;;;;;;;20.41;100.00;101267.75;4988865;28;20058;-79
2023/08/04 11:15:20;;;;;;;3.63;1.08;;;;;;;20.55;100.00;101263.81;5005983;28;20051;-80
2023/08/04 11:17:50;;;;;;;2.97;0.98;;;;;;;20.68;100.00;101264.31;4957536;28;20039;-80
2023/08/04 11:20:17;;;;;;;2.05;1.05;;;;;;;20.72;100.00;101277.56;4974639;28;20047;-80
2023/08/04 11:23:00;;;;;;;2.25;1.15;;;;;;;20.84;100.00;101268.25;4968785;28;20066;-80
2023/08/04 11:25:31;;;;;;;1.38;0.77;;;;;;;20.86;100.00;101277.09;4972708;28;20038;-80